Terminal Aerodrome Forecast
Issued by NWS Grand Forks, ND

Home | Current Version | Previous Version | Graphics & Text | Print | Product List | Glossary On
Versions: 1 2 3 4 5 6 7 8 9 10 11 12 13 14 15 16
580
FTUS43 KFGF 230859 AAA
TAFGFK
TAF AMD
KGFK 230859Z 2309/2406 35010KT P6SM VCSH OVC040
      TEMPO 2309/2311 -RA OVC020
     FM231200 02013KT P6SM OVC020
     FM231900 02013KT P6SM BKN040
     FM240000 04010KT P6SM SCT070=

USA.gov is the U.S. government's official web portal to all federal, state and local government web resources and services.